Time;durP1;ratioP1;P1;durP2;ratioP2;P2;SDS_P1;SDS_P2;PMS_P1;PMS_P2;Temp;Humidity;BMP_temperature;BMP_pressure;BME280_temperature;BME280_humidity;BME280_pressure;Samples;Min_cycle;Max_cycle;Signal;HPM_P1;HPM_P2
2023/01/18 00:01:17;;;;;;;5.95;1.50;;;1.20;99.90;;;0.96;95.71;96835.75;4945717;28;20230;-72
2023/01/18 00:03:45;;;;;;;13.63;3.05;;;1.20;99.90;;;0.94;96.09;96829.72;4936331;28;20238;-73
2023/01/18 00:06:12;;;;;;;21.05;4.50;;;1.80;99.90;;;0.96;96.03;96838.34;4921274;28;20312;-73
2023/01/18 00:08:41;;;;;;;9.35;2.25;;;1.10;99.90;;;0.98;96.05;96828.78;4950511;28;20241;-72
2023/01/18 00:11:14;;;;;;;9.80;2.25;;;1.70;99.90;;;0.87;95.93;96826.31;4944979;28;20240;-72
2023/01/18 00:13:41;;;;;;;12.27;2.78;;;1.10;99.90;;;0.90;95.79;96830.63;4964709;28;20232;-73
2023/01/18 00:16:19;;;;;;;6.55;1.65;;;1.10;99.90;;;0.88;96.05;96822.84;4937882;28;20230;-72
2023/01/18 00:18:55;;;;;;;12.68;2.80;;;1.20;99.90;;;0.89;96.05;96826.28;4951714;28;20324;-73
2023/01/18 00:21:25;;;;;;;8.82;2.10;;;1.10;99.90;;;0.88;96.08;96820.22;4953787;28;20240;-74
2023/01/18 00:23:55;;;;;;;7.15;1.73;;;1.00;99.90;;;0.86;96.45;96824.59;4948444;28;20234;-73
2023/01/18 00:26:22;;;;;;;6.63;1.63;;;1.10;99.90;;;0.82;96.27;96829.84;4952226;28;20226;-72
2023/01/18 00:28:49;;;;;;;13.40;2.95;;;1.00;99.90;;;0.86;96.41;96829.78;4951837;28;20238;-73
2023/01/18 00:31:19;;;;;;;9.27;2.13;;;1.00;99.90;;;0.84;96.28;96828.09;4939193;28;20238;-73
2023/01/18 00:33:49;;;;;;;3.72;1.15;;;1.10;99.90;;;0.78;96.68;96833.34;4944240;28;20383;-73
2023/01/18 00:36:18;;;;;;;11.40;2.50;;;1.00;99.90;;;0.77;96.88;96834.22;4955757;28;20238;-74
2023/01/18 00:38:52;;;;;;;9.40;2.42;;;1.00;99.90;;;0.75;96.93;96833.38;4952328;28;20327;-73
2023/01/18 00:41:21;;;;;;;8.63;2.03;;;0.90;99.90;;;0.74;96.95;96836.84;4953794;28;20283;-73
2023/01/18 00:43:50;;;;;;;15.90;3.63;;;0.90;99.90;;;0.75;96.68;96835.97;4953725;28;20292;-73
2023/01/18 00:46:23;;;;;;;12.50;2.80;;;0.90;99.90;;;0.74;97.07;96844.66;4952934;28;20309;-73
2023/01/18 00:48:53;;;;;;;20.33;4.40;;;0.90;99.90;;;0.71;97.45;96842.09;4945132;28;20721;-73
2023/01/18 00:51:23;;;;;;;16.75;3.60;;;0.90;99.90;;;0.73;96.76;96837.72;4948871;28;20264;-73
2023/01/18 00:53:51;;;;;;;9.18;2.20;;;0.90;99.90;;;0.76;97.05;96840.31;4948832;28;20237;-72
2023/01/18 00:56:21;;;;;;;14.15;3.15;;;0.90;99.90;;;0.63;97.15;96834.34;4928768;28;20234;-73
2023/01/18 00:58:48;;;;;;;15.05;3.28;;;0.90;99.90;;;0.62;96.64;96823.09;4934444;28;20241;-74
2023/01/18 01:01:16;;;;;;;10.90;2.63;;;0.90;99.90;;;0.64;96.56;96823.09;4949649;28;20245;-74
2023/01/18 01:06:43;;;;;;;8.15;1.95;;;0.80;99.90;;;0.65;96.34;96835.22;4948331;28;20234;-75
2023/01/18 01:09:13;;;;;;;10.18;2.25;;;0.80;99.90;;;0.68;96.54;96832.56;4971309;28;20792;-75
2023/01/18 01:12:31;;;;;;;10.38;2.33;;;0.90;99.90;;;0.68;96.38;96826.50;4969000;28;20232;-75
2023/01/18 01:28:16;;;;;;;13.63;3.00;;;0.80;99.90;;;0.58;95.81;96837.00;4970802;28;20276;-76
2023/01/18 01:30:44;;;;;;;19.13;4.15;;;0.80;99.90;;;0.59;95.96;96843.94;4957248;28;20229;-74
2023/01/18 01:33:11;;;;;;;8.57;2.00;;;0.80;99.90;;;0.60;95.66;96848.25;4969226;28;20225;-75
2023/01/18 01:35:38;;;;;;;14.95;3.33;;;0.80;99.90;;;0.59;95.47;96848.25;4970750;28;20331;-74
2023/01/18 01:38:05;;;;;;;16.17;3.53;;;0.80;99.90;;;0.61;95.63;96841.31;4965086;28;20302;-75
2023/01/18 01:40:32;;;;;;;10.43;2.40;;;0.80;99.90;;;0.56;95.17;96846.56;4949667;28;20229;-74
2023/01/18 01:43:00;;;;;;;6.45;1.60;;;0.90;99.90;;;0.58;94.82;96851.75;4970621;28;20330;-75
2023/01/18 01:45:30;;;;;;;8.90;2.08;;;1.50;99.90;;;0.57;94.85;96848.28;4970387;28;20335;-74
2023/01/18 01:47:58;;;;;;;14.45;3.17;;;1.30;99.90;;;0.58;94.93;96855.19;4945673;28;21238;-75
2023/01/18 01:50:43;;;;;;;25.17;5.25;;;0.80;99.90;;;0.57;94.81;96855.22;4947314;28;20347;-75
2023/01/18 01:53:10;;;;;;;37.50;7.53;;;1.10;99.90;;;0.57;94.57;96861.28;4944580;28;20220;-74
2023/01/18 01:55:39;;;;;;;18.85;4.07;;;0.90;99.90;;;0.58;94.37;96855.19;4948493;28;20308;-74
2023/01/18 01:58:21;;;;;;;21.83;4.53;;;0.80;99.90;;;0.59;94.31;96853.47;4966259;28;20240;-74
2023/01/18 02:00:48;;;;;;;17.85;3.80;;;1.50;99.90;;;0.57;94.15;96845.69;4959998;28;20236;-74
2023/01/18 02:03:17;;;;;;;8.82;2.10;;;0.90;99.90;;;0.57;94.20;96856.06;4963656;28;20233;-73
2023/01/18 02:05:54;;;;;;;13.05;3.15;;;0.90;99.90;;;0.60;94.03;96856.03;4951137;28;20260;-75
2023/01/18 02:08:21;;;;;;;13.18;2.88;;;0.80;99.90;;;0.63;94.00;96861.22;4952139;28;20248;-75
2023/01/18 02:10:50;;;;;;;15.18;3.25;;;0.80;99.90;;;0.64;93.68;96862.06;4947092;28;20311;-76
2023/01/18 02:13:20;;;;;;;11.38;2.55;;;1.00;99.90;;;0.63;93.76;96860.34;4962882;28;20721;-75
2023/01/18 02:16:18;;;;;;;12.98;3.00;;;1.10;99.90;;;0.66;93.43;96864.66;4948144;28;20331;-74
2023/01/18 02:19:55;;;;;;;24.05;4.85;;;0.80;99.90;;;0.66;93.37;96864.66;4956737;28;20240;-74
2023/01/18 02:22:34;;;;;;;11.70;2.60;;;0.90;99.90;;;0.67;93.20;96869.00;4958298;28;20252;-73
2023/01/18 02:25:19;;;;;;;5.93;1.45;;;0.90;99.90;;;0.67;93.09;96866.38;4965994;28;20253;-75
2023/01/18 02:28:16;;;;;;;15.77;3.25;;;0.80;99.90;;;0.68;92.77;96861.19;4976946;28;20269;-74
2023/01/18 02:30:57;;;;;;;10.30;2.45;;;0.90;99.90;;;0.68;92.67;96852.50;4972161;28;20295;-74
2023/01/18 02:33:53;;;;;;;9.65;2.17;;;0.90;99.90;;;0.73;92.34;96856.78;4950213;28;20233;-75
2023/01/18 02:37:13;;;;;;;8.95;2.05;;;0.90;99.90;;;0.76;92.32;96851.56;4956546;28;20319;-75
2023/01/18 02:40:05;;;;;;;11.25;2.50;;;0.90;99.90;;;0.80;92.02;96849.78;4934487;28;20238;-75
2023/01/18 02:48:23;;;;;;;26.40;5.43;;;1.00;99.90;;;0.86;91.35;96845.41;4957777;28;20233;-74
2023/01/18 02:50:51;;;;;;;17.55;3.80;;;1.10;99.90;;;0.90;90.81;96841.03;4950574;28;20347;-74
2023/01/18 02:53:18;;;;;;;14.65;3.22;;;1.00;99.90;;;0.90;90.42;96839.28;4970094;28;20283;-71
2023/01/18 02:56:04;;;;;;;7.60;1.92;;;1.10;99.90;;;0.92;89.96;96829.72;4968709;28;20240;-74
2023/01/18 02:58:56;;;;;;;16.17;3.40;;;1.10;99.90;;;0.90;90.24;96822.81;4950090;28;20272;-74
2023/01/18 03:01:56;;;;;;;10.73;2.42;;;1.10;99.90;;;0.91;89.96;96833.19;4951891;28;20581;-75
2023/01/18 03:04:38;;;;;;;21.80;4.50;;;1.10;99.90;;;0.92;89.98;96831.47;4910354;28;20244;-75
2023/01/18 03:07:12;;;;;;;13.57;3.05;;;1.10;99.90;;;0.91;90.09;96833.19;4935841;28;20312;-75
2023/01/18 03:09:41;;;;;;;26.58;5.65;;;1.10;99.90;;;0.94;89.81;96837.50;4957076;28;20626;-74
2023/01/18 03:12:27;;;;;;;13.93;3.03;;;1.20;99.90;;;0.92;90.31;96834.94;4955822;28;20308;-74
2023/01/18 03:15:40;;;;;;;9.80;2.22;;;1.10;99.90;;;0.93;90.01;96841.84;4964979;28;20228;-75
2023/01/18 03:18:21;;;;;;;9.55;2.13;;;1.10;99.90;;;0.92;90.47;96863.53;4943106;28;20289;-77
2023/01/18 03:20:54;;;;;;;14.23;3.22;;;1.10;99.90;;;0.97;90.11;96858.28;4943990;28;20255;-74
2023/01/18 03:23:38;;;;;;;7.55;1.80;;;1.10;99.90;;;0.94;90.10;96851.38;4949279;28;20222;-73
2023/01/18 03:26:16;;;;;;;7.38;1.73;;;1.40;99.90;;;1.01;89.89;96866.91;4947206;28;20233;-75
2023/01/18 03:34:58;;;;;;;11.13;2.58;;;1.20;99.90;;;1.04;89.08;96843.47;4943709;28;20233;-75
2023/01/18 03:37:39;;;;;;;9.27;2.15;;;1.20;99.90;;;1.02;88.86;96835.69;4949360;28;20260;-75
2023/01/18 03:40:12;;;;;;;15.05;3.25;;;1.20;99.90;;;1.07;88.50;96830.44;4946779;28;20324;-75
2023/01/18 03:43:14;;;;;;;6.53;1.70;;;1.20;99.90;;;1.06;88.43;96832.16;4953096;28;20278;-75
2023/01/18 03:45:47;;;;;;;11.60;2.65;;;1.20;99.90;;;1.09;87.96;96829.53;4942937;28;20252;-75
2023/01/18 03:48:14;;;;;;;11.68;2.58;;;2.10;99.90;;;1.11;87.70;96821.72;4944305;28;20373;-74
2023/01/18 03:51:12;;;;;;;15.75;3.53;;;1.30;99.90;;;1.10;87.80;96820.00;4954089;28;20288;-74
2023/01/18 03:54:06;;;;;;;17.58;3.88;;;1.30;99.90;;;1.12;87.64;96826.03;4942500;28;20675;-74
2023/01/18 03:56:42;;;;;;;13.90;3.03;;;1.30;99.90;;;1.11;87.83;96834.72;4946971;28;20229;-73
2023/01/18 03:59:09;;;;;;;7.03;1.65;;;1.30;99.90;;;1.13;87.26;96830.38;4935212;28;20359;-75
2023/01/18 04:01:36;;;;;;;12.43;2.75;;;1.70;99.90;;;1.16;87.02;96830.31;4941714;28;20265;-74
2023/01/18 04:04:03;;;;;;;13.63;2.90;;;1.50;99.90;;;1.15;86.57;96820.81;4944994;28;20225;-76
2023/01/18 04:06:35;;;;;;;26.15;5.22;;;1.30;99.90;;;1.21;86.31;96818.13;4964169;28;20280;-78
2023/01/18 04:09:03;;;;;;;10.48;2.35;;;1.40;99.90;;;1.19;85.89;96809.47;4948156;28;20252;-78
2023/01/18 04:11:30;;;;;;;5.65;1.35;;;1.40;99.90;;;1.19;86.05;96814.69;4974992;28;20228;-77
2023/01/18 04:13:58;;;;;;;15.05;3.20;;;1.40;99.90;;;1.24;85.53;96805.06;4967860;28;20275;-77
2023/01/18 04:16:25;;;;;;;3.60;1.00;;;1.40;99.90;;;1.23;85.67;96805.97;4937264;28;20689;-77
2023/01/18 04:18:52;;;;;;;31.10;6.40;;;1.40;99.90;;;1.23;85.60;96808.56;4968108;28;20325;-78
2023/01/18 04:21:20;;;;;;;8.00;1.85;;;1.40;99.90;;;1.29;84.82;96800.69;4972299;28;20239;-76
2023/01/18 04:23:47;;;;;;;12.00;2.80;;;1.50;99.90;;;1.30;84.35;96789.41;4976646;28;20236;-76
2023/01/18 04:26:15;;;;;;;9.60;2.13;;;1.70;99.90;;;1.31;84.26;96791.13;4976459;28;20292;-76
2023/01/18 04:28:42;;;;;;;12.95;3.00;;;1.60;99.90;;;1.33;83.96;96786.78;4985047;28;20233;-76
2023/01/18 04:31:09;;;;;;;11.93;2.60;;;1.60;99.90;;;1.33;83.81;96785.91;4975844;28;20233;-76
2023/01/18 04:33:36;;;;;;;11.68;2.53;;;1.50;99.90;;;1.34;83.78;96778.09;4975105;28;20229;-76
2023/01/18 04:36:04;;;;;;;6.18;1.52;;;1.50;99.90;;;1.31;83.92;96787.69;4986390;28;20255;-76
2023/01/18 04:38:31;;;;;;;8.82;2.15;;;1.50;99.90;;;1.33;83.71;96784.16;4989180;28;20256;-76
2023/01/18 04:41:05;;;;;;;8.93;2.05;;;1.50;99.90;;;1.32;83.67;96785.06;4970843;28;20292;-75
2023/01/18 04:43:32;;;;;;;7.78;1.90;;;2.10;99.90;;;1.31;83.64;96785.94;4954668;28;20232;-76
2023/01/18 04:45:59;;;;;;;8.65;2.00;;;1.50;99.90;;;1.26;84.11;96800.72;4959807;28;20302;-77
2023/01/18 04:48:26;;;;;;;14.85;3.13;;;1.60;99.90;;;1.22;84.67;96818.09;4965045;28;20698;-76
2023/01/18 04:50:53;;;;;;;9.60;2.20;;;1.50;99.90;;;1.17;84.99;96827.72;4964575;28;20237;-76
2023/01/18 04:53:20;;;;;;;5.47;1.38;;;1.40;99.90;;;1.13;85.51;96854.63;4961598;28;20254;-77
2023/01/18 04:55:48;;;;;;;9.43;2.20;;;1.70;99.90;;;1.11;85.38;96866.81;4961787;28;20264;-76
2023/01/18 04:58:15;;;;;;;10.27;2.30;;;1.30;99.90;;;1.10;86.07;96874.63;4963024;28;20279;-77
2023/01/18 05:00:42;;;;;;;11.30;2.58;;;1.20;99.90;;;1.13;86.20;96892.81;4960548;28;20257;-77
2023/01/18 05:03:11;;;;;;;13.45;2.80;;;1.30;99.90;;;1.10;86.52;96898.91;4972108;28;20225;-78
2023/01/18 05:05:39;;;;;;;13.35;3.00;;;1.90;99.90;;;1.04;87.67;96929.31;4971561;28;20257;-77
2023/01/18 05:08:06;;;;;;;25.15;5.15;;;1.90;99.90;;;1.01;88.26;96944.97;4971520;28;20229;-77
2023/01/18 05:10:33;;;;;;;12.50;2.75;;;1.80;99.90;;;0.93;89.23;96961.50;4965501;28;20241;-76
2023/01/18 05:13:00;;;;;;;20.27;4.18;;;1.30;99.90;;;0.83;90.23;96993.66;4965276;28;20283;-76
2023/01/18 05:15:27;;;;;;;29.80;6.03;;;1.60;99.90;;;0.79;91.82;97017.09;4958951;28;20328;-77
2023/01/18 05:17:55;;;;;;;19.67;4.22;;;1.00;99.90;;;0.74;92.77;97034.47;4964682;28;20295;-76
2023/01/18 05:20:22;;;;;;;11.35;2.55;;;1.00;99.90;;;0.72;94.28;97060.47;4959468;28;20272;-78
2023/01/18 05:22:49;;;;;;;14.57;3.25;;;0.90;99.90;;;0.68;95.14;97081.31;4945527;28;20229;-77
2023/01/18 05:25:16;;;;;;;14.32;3.17;;;0.90;99.90;;;0.70;96.05;97093.44;4965183;28;20285;-77
2023/01/18 05:27:43;;;;;;;20.63;4.40;;;1.40;99.90;;;0.69;96.57;97106.44;4966101;28;20740;-77
2023/01/18 05:30:17;;;;;;;20.83;4.32;;;0.90;99.90;;;0.71;97.47;97128.97;4963543;28;20249;-78
2023/01/18 05:32:43;;;;;;;15.20;3.20;;;0.90;99.90;;;0.69;97.81;97135.03;4968690;28;20278;-77
2023/01/18 05:35:11;;;;;;;11.63;2.58;;;0.90;99.90;;;0.67;98.79;97149.78;4943646;28;20249;-77
2023/01/18 05:37:38;;;;;;;16.45;3.42;;;0.90;99.90;;;0.67;98.46;97150.66;4957064;28;20229;-77
2023/01/18 05:40:06;;;;;;;13.70;2.95;;;0.90;99.90;;;0.69;98.86;97159.31;4966299;28;20308;-77
2023/01/18 05:42:32;;;;;;;7.97;1.88;;;0.90;99.90;;;0.69;98.76;97161.91;4972204;28;20660;-76
2023/01/18 05:44:59;;;;;;;13.60;2.90;;;1.50;99.90;;;0.77;98.48;97174.88;4951828;28;20295;-77
2023/01/18 05:47:27;;;;;;;12.15;2.63;;;0.90;99.90;;;0.74;98.24;97172.28;4968433;28;20233;-77
2023/01/18 05:49:56;;;;;;;7.78;1.85;;;1.50;99.90;;;0.76;98.03;97171.41;4967507;28;20689;-77
2023/01/18 05:52:23;;;;;;;20.55;4.20;;;1.30;99.90;;;0.80;96.95;97167.91;4960528;28;20236;-78
2023/01/18 05:54:50;;;;;;;21.27;4.57;;;1.00;99.90;;;0.78;97.09;97169.66;4951741;28;20288;-78
2023/01/18 05:57:17;;;;;;;9.73;2.13;;;1.60;99.90;;;0.77;96.84;97167.94;4959385;28;20269;-77
2023/01/18 05:59:44;;;;;;;8.00;1.85;;;1.60;99.90;;;0.75;96.68;97168.81;4953162;28;20328;-77
2023/01/18 06:02:11;;;;;;;8.05;1.85;;;1.30;99.90;;;0.72;96.67;97164.50;4946543;28;20311;-77
2023/01/18 06:04:38;;;;;;;7.75;1.80;;;0.90;99.90;;;0.74;96.35;97165.34;4967173;28;20330;-77
2023/01/18 06:07:05;;;;;;;8.50;1.90;;;1.10;99.90;;;0.76;96.08;97167.94;4955741;28;20240;-77
2023/01/18 06:09:32;;;;;;;3.85;1.00;;;1.30;99.90;;;0.75;96.04;97161.00;4930143;28;20316;-77
2023/01/18 06:11:59;;;;;;;6.53;1.58;;;0.90;99.90;;;0.77;95.54;97169.66;4935268;28;20342;-77
2023/01/18 06:14:26;;;;;;;10.70;2.35;;;1.00;99.90;;;0.76;95.19;97167.94;4947816;28;20234;-77
2023/01/18 06:16:53;;;;;;;6.90;1.77;;;1.00;99.90;;;0.75;95.11;97164.47;4959823;28;20252;-77
2023/01/18 06:19:20;;;;;;;8.65;2.00;;;1.00;99.90;;;0.75;95.05;97174.03;4952680;28;20280;-77
2023/01/18 06:21:48;;;;;;;18.20;3.85;;;1.00;99.90;;;0.76;95.01;97173.16;4961509;28;20310;-77
2023/01/18 06:24:15;;;;;;;9.38;2.15;;;0.90;99.90;;;0.75;94.94;97176.63;4967553;28;20236;-77
2023/01/18 06:26:42;;;;;;;10.15;2.28;;;0.90;99.90;;;0.75;94.94;97176.63;4963645;28;20324;-76
2023/01/18 06:29:09;;;;;;;15.90;3.38;;;0.90;99.90;;;0.72;94.93;97177.50;4941514;28;20326;-76
2023/01/18 06:31:36;;;;;;;11.57;2.47;;;0.90;99.90;;;0.75;94.73;97184.41;4938490;28;20295;-77
2023/01/18 06:34:08;;;;;;;16.08;3.42;;;0.90;99.90;;;0.72;94.44;97177.50;4951321;28;20301;-76
2023/01/18 06:36:38;;;;;;;13.13;2.85;;;0.90;99.90;;;0.67;95.27;97183.59;4969771;28;20595;-77
2023/01/18 06:39:06;;;;;;;11.93;2.55;;;1.00;99.90;;;0.69;95.01;97187.03;4963187;28;20236;-76
2023/01/18 06:41:33;;;;;;;7.15;1.65;;;0.90;99.90;;;0.68;94.66;97186.19;4970180;28;20256;-77
2023/01/18 06:44:01;;;;;;;26.50;5.63;;;1.20;99.90;;;0.64;95.12;97190.53;4946691;28;20253;-77
2023/01/18 06:46:31;;;;;;;16.90;3.55;;;0.80;99.90;;;0.62;94.90;97194.00;4951154;28;20225;-78
2023/01/18 06:48:58;;;;;;;22.73;4.68;;;0.80;99.90;;;0.56;94.86;97194.03;4941970;28;20233;-76
2023/01/18 06:51:25;;;;;;;15.90;3.33;;;1.40;99.90;;;0.60;94.70;97208.75;4949987;28;20221;-76
2023/01/18 06:53:52;;;;;;;12.90;2.95;;;0.80;99.90;;;0.61;94.45;97208.75;4930900;28;20237;-76
2023/01/18 06:56:19;;;;;;;17.48;3.72;;;0.80;99.90;;;0.57;94.67;97212.22;4954583;28;20233;-76
2023/01/18 06:58:46;;;;;;;16.00;3.42;;;1.00;99.90;;;0.56;94.69;97214.81;4951023;28;20275;-76
2023/01/18 07:01:13;;;;;;;14.75;3.15;;;0.70;99.90;;;0.55;94.86;97229.56;4955495;28;20260;-76
2023/01/18 07:03:41;;;;;;;13.82;2.97;;;0.70;99.90;;;0.51;94.82;97227.84;4950542;28;20235;-75
2023/01/18 07:06:08;;;;;;;12.43;2.90;;;0.80;99.90;;;0.56;95.01;97243.41;4940792;28;20693;-76
2023/01/18 07:08:35;;;;;;;10.50;2.40;;;0.70;99.90;;;0.53;94.95;97246.03;4955684;28;20229;-76
2023/01/18 07:11:09;;;;;;;17.65;3.83;;;0.70;99.90;;;0.54;94.62;97243.44;4939900;28;20260;-76
2023/01/18 07:13:39;;;;;;;19.35;4.10;;;0.90;99.90;;;0.57;94.53;97247.75;4937028;28;20361;-74
2023/01/18 07:16:08;;;;;;;10.85;2.60;;;0.80;99.90;;;0.59;94.15;97244.28;4946663;28;20335;-75
2023/01/18 07:18:35;;;;;;;15.80;3.33;;;0.80;99.90;;;0.55;94.16;97245.16;4960899;28;20293;-76
2023/01/18 07:21:08;;;;;;;8.73;2.05;;;0.80;99.90;;;0.56;93.99;97246.03;4965242;28;20323;-76
2023/01/18 07:23:38;;;;;;;9.23;2.10;;;0.80;99.90;;;0.57;94.00;97250.34;4946548;28;20276;-76
2023/01/18 07:26:15;;;;;;;8.18;1.90;;;0.80;99.90;;;0.58;93.63;97246.88;4950376;28;20271;-75
2023/01/18 07:28:46;;;;;;;10.25;2.38;;;1.10;99.90;;;0.58;93.49;97241.69;4950099;28;20239;-77
2023/01/18 07:31:15;;;;;;;8.25;1.85;;;0.90;99.90;;;0.59;93.30;97244.28;4960716;28;20229;-76
2023/01/18 07:33:43;;;;;;;8.70;1.90;;;1.10;99.90;;;0.59;93.04;97251.22;4974438;28;20288;-76
2023/01/18 07:36:10;;;;;;;11.38;2.47;;;0.80;99.90;;;0.57;92.75;97245.16;4943883;28;20221;-76
2023/01/18 07:38:38;;;;;;;10.07;2.40;;;0.80;99.90;;;0.55;92.93;97244.28;4965009;28;20610;-76
2023/01/18 07:41:09;;;;;;;14.70;3.13;;;0.70;99.90;;;0.55;92.95;97254.69;4942910;28;20240;-75
2023/01/18 07:43:37;;;;;;;10.50;2.53;;;0.90;99.90;;;0.61;92.47;97252.94;4954803;28;20311;-76
2023/01/18 07:46:07;;;;;;;7.40;1.75;;;1.10;99.90;;;0.64;92.20;97252.06;4962147;28;20248;-75
2023/01/18 07:48:34;;;;;;;10.43;2.35;;;0.90;99.90;;;0.57;91.74;97235.63;4955170;28;20242;-75
2023/01/18 07:51:07;;;;;;;8.57;2.10;;;0.90;99.90;;;0.58;91.67;97232.16;4961673;28;20240;-75
2023/01/18 07:53:36;;;;;;;7.10;1.65;;;1.40;99.90;;;0.57;91.71;97233.00;4961566;28;20221;-75
2023/01/18 07:56:12;;;;;;;9.95;2.42;;;0.90;99.90;;;0.57;91.67;97235.63;4951471;28;20229;-75
2023/01/18 07:58:39;;;;;;;9.18;2.08;;;0.80;99.90;;;0.58;91.25;97233.88;4961591;28;20287;-77
2023/01/18 08:01:19;;;;;;;8.95;2.13;;;0.80;99.90;;;0.54;91.12;97238.22;4956259;28;20236;-75
2023/01/18 08:03:48;;;;;;;9.63;2.15;;;0.70;99.90;;;0.60;90.84;97239.94;4959427;28;20244;-77
2023/01/18 08:06:23;;;;;;;8.52;1.98;;;1.60;99.90;;;0.60;91.02;97248.59;4944697;28;20264;-76
2023/01/18 08:08:53;;;;;;;12.45;2.95;;;1.50;99.90;;;0.54;90.91;97246.03;4957288;28;20228;-76
2023/01/18 08:11:20;;;;;;;7.22;1.75;;;1.30;99.90;;;0.57;90.74;97253.81;4968256;28;20236;-76
2023/01/18 08:13:48;;;;;;;12.90;2.83;;;1.40;99.90;;;0.57;90.62;97248.63;4960270;28;20272;-76
2023/01/18 08:16:16;;;;;;;10.77;2.40;;;0.70;99.90;;;0.61;90.55;97259.88;4971318;28;20272;-77
2023/01/18 08:18:44;;;;;;;8.73;1.95;;;0.90;99.90;;;0.59;90.40;97261.59;4973514;28;20319;-76
2023/01/18 08:21:12;;;;;;;7.90;1.90;;;0.90;99.90;;;0.63;90.24;97264.19;4967490;28;20236;-76
2023/01/18 08:23:40;;;;;;;9.63;2.15;;;0.80;99.90;;;0.69;90.12;97272.84;4971502;28;20232;-76
2023/01/18 08:26:09;;;;;;;9.05;2.17;;;0.80;99.90;;;0.69;89.89;97268.50;4969194;28;20229;-76
2023/01/18 08:28:36;;;;;;;10.77;2.45;;;0.90;99.90;;;0.73;90.02;97274.56;4976296;28;20348;-76
2023/01/18 08:31:19;;;;;;;13.48;2.97;;;0.90;99.90;;;0.73;89.72;97274.56;4963485;28;20225;-75
2023/01/18 08:33:48;;;;;;;12.82;2.80;;;0.90;99.90;;;0.78;89.71;97276.28;4966501;28;20252;-77
2023/01/18 08:36:19;;;;;;;12.98;2.92;;;1.90;99.90;;;0.82;89.48;97282.34;4967628;28;20237;-76
2023/01/18 08:38:55;;;;;;;18.35;3.72;;;1.00;99.90;;;0.84;89.32;97291.00;4966502;28;20236;-77
2023/01/18 08:41:27;;;;;;;10.85;2.35;;;1.00;99.90;;;0.90;89.13;97285.78;4967969;28;20247;-77
2023/01/18 08:43:55;;;;;;;8.15;1.92;;;1.00;99.90;;;0.92;88.25;97279.72;4967851;28;20651;-76
2023/01/18 08:46:24;;;;;;;12.90;2.88;;;1.10;99.90;;;0.95;88.18;97274.50;4963444;28;20240;-77
2023/01/18 08:48:53;;;;;;;22.10;5.05;;;1.10;99.90;;;1.01;87.32;97262.34;4950703;28;20261;-77
2023/01/18 08:51:22;;;;;;;10.98;2.45;;;1.20;99.90;;;1.01;87.30;97262.34;4964194;28;20237;-76
2023/01/18 08:53:55;;;;;;;18.55;3.83;;;1.20;99.90;;;1.07;86.77;97251.91;4946304;28;20233;-76
2023/01/18 08:56:24;;;;;;;11.73;2.60;;;1.20;99.90;;;1.11;85.80;97243.22;4965197;28;20232;-77
2023/01/18 08:58:51;;;;;;;22.63;4.55;;;1.30;99.90;;;1.14;85.38;97225.84;4946066;28;20228;-77
2023/01/18 09:06:45;;;;;;;11.07;2.47;;;1.40;99.90;;;1.23;84.27;97204.97;4970667;23;20276;-72
2023/01/18 09:09:12;;;;;;;38.45;7.65;;;1.50;99.90;;;1.32;83.89;97204.09;4968939;28;20325;-71
2023/01/18 09:11:39;;;;;;;16.45;3.45;;;1.50;99.90;;;1.37;82.96;97188.44;4974964;28;20231;-73
2023/01/18 09:14:07;;;;;;;22.95;4.72;;;1.70;99.90;;;1.40;81.99;97155.44;4967740;28;20233;-72
2023/01/18 09:16:35;;;;;;;11.13;2.53;;;1.50;99.90;;;1.44;81.88;97141.53;4967736;28;20229;-75
2023/01/18 09:19:05;;;;;;;16.58;3.55;;;1.70;99.90;;;1.50;80.99;97128.47;4965009;28;20237;-72
2023/01/18 09:21:33;;;;;;;11.70;2.53;;;1.70;99.90;;;1.51;80.15;97088.53;4946664;28;20241;-75
2023/01/18 09:24:00;;;;;;;18.80;3.97;;;1.70;99.90;;;1.53;79.34;97059.88;4950773;28;20238;-76
2023/01/18 09:26:29;;;;;;;9.90;2.22;;;1.70;99.90;;;1.59;78.87;97052.00;4962445;28;20697;-76
2023/01/18 09:28:56;;;;;;;14.65;3.25;;;1.70;99.90;;;1.65;78.79;97056.28;4962946;28;20229;-75
2023/01/18 09:31:28;;;;;;;7.13;1.70;;;1.80;99.90;;;1.69;78.04;97050.16;4963957;28;20239;-75
2023/01/18 09:33:56;;;;;;;19.42;4.15;;;1.80;99.90;;;1.69;77.42;97024.13;4964662;28;20991;-76
2023/01/18 09:36:44;;;;;;;10.93;2.47;;;1.90;99.90;;;1.73;77.00;97007.59;4961967;28;20313;-75
2023/01/18 09:39:12;;;;;;;13.65;3.05;;;1.90;99.90;;;1.76;76.70;96995.41;4961021;28;20240;-75
2023/01/18 09:41:46;;;;;;;9.40;2.13;;;1.90;99.90;;;1.84;76.40;96997.91;4964321;28;20604;-75
2023/01/18 09:44:28;;;;;;;9.48;2.13;;;2.00;99.90;;;1.89;76.03;96990.91;4956045;28;20233;-76
2023/01/18 09:47:20;;;;;;;14.98;3.25;;;2.00;99.90;;;1.94;75.41;96970.88;4957293;28;20317;-76
2023/01/18 09:50:01;;;;;;;11.85;2.60;;;2.10;99.90;;;2.02;75.28;96973.38;4954599;28;20229;-74
2023/01/18 09:52:34;;;;;;;14.13;3.08;;;2.20;99.90;;;2.09;74.97;96993.28;4952192;28;20230;-75
2023/01/18 09:55:19;;;;;;;11.02;2.58;;;2.20;99.90;;;2.12;75.18;97001.91;4955111;28;20229;-74
2023/01/18 09:58:04;;;;;;;8.25;1.95;;;2.30;99.90;;;2.14;74.86;96983.66;4963882;28;20229;-74
2023/01/18 10:00:36;;;;;;;7.28;1.70;;;2.30;99.90;;;2.23;74.72;96986.13;4954299;28;20245;-75
2023/01/18 10:03:17;;;;;;;11.75;2.65;;;2.30;99.90;;;2.25;75.00;96995.66;4943906;28;20317;-74
2023/01/18 10:06:14;;;;;;;12.38;2.72;;;2.40;99.90;;;2.18;74.37;96967.94;4935320;28;20226;-74
2023/01/18 10:09:04;;;;;;;8.18;1.92;;;2.30;99.90;;;2.25;74.40;96981.75;4955282;28;20230;-74
2023/01/18 10:11:49;;;;;;;7.43;1.80;;;2.40;99.90;;;2.19;73.40;96922.75;4958694;28;20276;-74
2023/01/18 10:14:40;;;;;;;15.18;3.33;;;2.30;99.90;;;2.23;73.35;96913.16;4965621;28;20241;-74
2023/01/18 10:17:21;;;;;;;14.10;3.15;;;2.40;99.90;;;2.23;71.96;96848.00;4964511;28;20229;-73
2023/01/18 10:19:49;;;;;;;9.07;2.05;;;2.40;99.90;;;2.34;72.37;96872.16;4960419;28;20237;-74
2023/01/18 10:22:33;;;;;;;10.13;2.30;;;2.50;99.90;;;2.39;71.70;96846.00;4951138;28;20308;-74
2023/01/18 10:25:51;;;;;;;10.77;2.50;;;2.50;99.90;;;2.53;70.38;96815.34;4939528;28;20229;-74
2023/01/18 10:29:14;;;;;;;10.68;2.38;;;2.60;99.90;;;2.63;69.59;96783.03;4953952;28;20252;-74
2023/01/18 10:31:57;;;;;;;12.75;2.88;;;2.70;99.90;;;2.59;69.12;96723.97;4962579;28;20221;-74
2023/01/18 10:34:33;;;;;;;18.35;4.03;;;2.80;99.90;;;2.80;68.93;96747.06;4953096;28;20224;-74
2023/01/18 10:37:37;;;;;;;13.40;3.15;;;2.90;99.90;;;2.78;67.30;96670.56;4964488;28;20229;-73
2023/01/18 10:40:09;;;;;;;8.60;1.98;;;2.90;99.90;;;2.89;67.76;96680.78;4969444;28;20229;-74
2023/01/18 10:42:48;;;;;;;9.43;2.20;;;3.00;99.90;;;2.97;67.65;96707.59;4972907;28;20237;-74
2023/01/18 10:45:29;;;;;;;10.50;2.45;;;3.00;99.90;;;2.88;67.48;96672.09;4976619;28;20233;-74
2023/01/18 10:48:10;;;;;;;9.32;2.30;;;3.00;99.90;;;2.95;66.66;96649.34;4959503;28;20291;-74
2023/01/18 10:50:41;;;;;;;9.52;2.25;;;3.10;99.90;;;2.92;66.83;96633.75;4947448;28;20276;-73
2023/01/18 10:53:25;;;;;;;13.57;3.13;;;3.00;99.90;;;2.90;66.20;96599.03;4938108;28;20241;-73
2023/01/18 10:56:04;;;;;;;11.55;2.67;;;3.10;99.90;;;2.96;66.16;96606.72;4964371;28;20323;-75
2023/01/18 10:58:49;;;;;;;17.15;3.80;;;3.10;99.90;;;3.08;66.29;96637.75;4958028;28;20233;-74
2023/01/18 11:01:22;;;;;;;13.18;2.95;;;3.20;99.90;;;3.13;66.24;96625.47;4965206;28;20241;-75
2023/01/18 11:03:56;;;;;;;12.60;2.88;;;3.20;99.90;;;3.14;66.03;96613.25;4964743;28;20264;-76
2023/01/18 11:06:25;;;;;;;10.73;2.60;;;3.30;99.90;;;3.16;65.46;96578.41;4961319;28;20976;-76
2023/01/18 11:08:53;;;;;;;32.30;6.07;;;3.30;99.90;;;3.36;65.04;96587.50;4961247;28;20288;-75
2023/01/18 11:14:28;;;;;;;17.95;3.78;;;3.40;99.90;;;3.21;64.15;96485.19;4962967;28;20252;-74
2023/01/18 11:17:11;;;;;;;17.90;3.75;;;3.40;99.90;;;3.37;64.52;96531.78;4966635;28;20261;-73
2023/01/18 11:19:40;;;;;;;14.68;3.25;;;3.40;99.90;;;3.42;64.43;96540.38;4956282;28;20233;-73
2023/01/18 11:22:15;;;;;;;22.27;4.57;;;3.50;99.90;;;3.49;65.22;96583.72;4962187;28;20253;-74
2023/01/18 11:24:43;;;;;;;14.10;3.08;;;3.60;99.90;;;3.55;65.12;96591.41;4953763;28;20239;-71
2023/01/18 11:27:23;;;;;;;14.73;3.30;;;3.60;99.90;;;3.49;64.97;96575.88;4963847;28;20257;-74
2023/01/18 11:29:54;;;;;;;22.98;4.75;;;3.60;99.90;;;3.39;64.48;96524.78;4960351;28;20233;-74